Time;durP1;ratioP1;P1;durP2;ratioP2;P2;SDS_P1;SDS_P2;PMS_P1;PMS_P2;Temp;Humidity;BMP_temperature;BMP_pressure;BME280_temperature;BME280_humidity;BME280_pressure;Samples;Min_cycle;Max_cycle;Signal;HPM_P1;HPM_P2
2022/03/06 00:00:50;;;;;;;30.10;13.88;;;-0.60;99.90;;;;;;4843547;29;20049;-74
2022/03/06 00:03:16;;;;;;;27.27;13.20;;;-0.50;99.90;;;;;;4843832;29;20052;-73
2022/03/06 00:05:42;;;;;;;23.58;13.05;;;-0.50;99.90;;;;;;4827136;29;20065;-72
2022/03/06 00:08:08;;;;;;;22.92;13.27;;;-0.50;99.90;;;;;;4843670;29;20042;-73
2022/03/06 00:10:34;;;;;;;24.63;13.10;;;-0.40;99.90;;;;;;4843537;29;20054;-73
2022/03/06 00:13:00;;;;;;;21.50;12.70;;;-0.50;99.90;;;;;;4843607;29;20102;-72
2022/03/06 00:15:26;;;;;;;25.48;12.57;;;-0.50;99.90;;;;;;4843248;29;20058;-75
2022/03/06 00:17:55;;;;;;;21.17;12.10;;;-0.40;99.90;;;;;;4843056;29;20076;-75
2022/03/06 00:20:22;;;;;;;24.90;12.52;;;-0.40;99.90;;;;;;4843188;29;20046;-72
2022/03/06 00:22:48;;;;;;;21.75;12.20;;;-0.40;99.90;;;;;;4842391;29;20046;-73
2022/03/06 00:25:14;;;;;;;21.27;11.85;;;-0.40;99.90;;;;;;4840564;29;20053;-73
2022/03/06 00:27:40;;;;;;;26.10;13.93;;;-0.40;99.90;;;;;;4832350;29;20110;-71
2022/03/06 00:30:07;;;;;;;22.63;12.10;;;0.60;99.90;;;;;;4834313;29;20050;-73
2022/03/06 00:32:33;;;;;;;26.25;14.55;;;-0.40;99.90;;;;;;4832620;29;20053;-73
2022/03/06 00:35:03;;;;;;;23.38;12.50;;;-0.30;99.90;;;;;;4832408;29;20050;-74
2022/03/06 00:37:31;;;;;;;23.08;11.50;;;0.20;99.90;;;;;;4834492;29;20110;-74
2022/03/06 00:39:58;;;;;;;22.98;12.45;;;-0.30;99.90;;;;;;4834675;29;20046;-75
2022/03/06 00:42:23;;;;;;;21.33;12.32;;;-0.30;99.90;;;;;;4832091;29;20042;-73
2022/03/06 00:44:52;;;;;;;25.77;16.95;;;-0.30;99.90;;;;;;4835499;29;20121;-76
2022/03/06 00:47:17;;;;;;;19.88;10.77;;;-0.30;99.90;;;;;;4832581;29;20075;-73
2022/03/06 00:49:43;;;;;;;20.63;12.32;;;-0.30;99.90;;;;;;4833765;29;20053;-75
2022/03/06 00:52:09;;;;;;;21.98;10.98;;;-0.30;99.90;;;;;;4815955;29;20103;-74
2022/03/06 00:54:35;;;;;;;22.58;11.98;;;-0.30;99.90;;;;;;4828048;29;20053;-73
2022/03/06 00:57:05;;;;;;;20.38;10.98;;;-0.20;99.90;;;;;;4824986;29;20065;-72
2022/03/06 00:59:34;;;;;;;20.75;10.60;;;-0.20;99.90;;;;;;4816822;29;20046;-73
2022/03/06 01:02:02;;;;;;;20.58;10.50;;;-0.20;99.90;;;;;;4816489;29;20051;-75
2022/03/06 01:04:28;;;;;;;20.35;10.38;;;-0.20;99.90;;;;;;4808729;29;20047;-75
2022/03/06 01:06:53;;;;;;;17.63;10.48;;;-0.20;99.90;;;;;;4806200;29;20047;-74
2022/03/06 01:09:19;;;;;;;17.83;10.57;;;-0.20;99.90;;;;;;4806158;29;20058;-75
2022/03/06 01:11:44;;;;;;;17.23;9.40;;;-0.20;99.90;;;;;;4806403;29;20051;-76
2022/03/06 01:14:10;;;;;;;21.58;11.07;;;-0.20;99.90;;;;;;4806023;29;20054;-75
2022/03/06 01:16:36;;;;;;;18.90;9.73;;;-0.20;99.90;;;;;;4806006;29;20050;-75
2022/03/06 01:19:02;;;;;;;19.65;10.15;;;-0.20;99.90;;;;;;4805758;29;20404;-76
2022/03/06 01:21:28;;;;;;;18.63;9.57;;;-0.10;99.90;;;;;;4805893;29;20081;-75
2022/03/06 01:23:53;;;;;;;19.80;9.90;;;-0.10;99.90;;;;;;4805973;29;20108;-74
2022/03/06 01:26:19;;;;;;;18.63;10.18;;;-0.10;99.90;;;;;;4806029;29;20129;-76
2022/03/06 01:28:45;;;;;;;18.08;9.07;;;-0.10;99.90;;;;;;4789723;29;20086;-75
2022/03/06 01:31:11;;;;;;;19.05;9.88;;;-0.20;99.90;;;;;;4805718;29;20253;-75
2022/03/06 01:33:37;;;;;;;17.83;8.90;;;-0.20;99.90;;;;;;4805432;29;20072;-75
2022/03/06 01:36:03;;;;;;;17.02;8.77;;;-0.20;99.90;;;;;;4789508;29;20377;-75
2022/03/06 01:38:29;;;;;;;17.92;8.95;;;0.80;99.90;;;;;;4805840;29;20043;-75
2022/03/06 01:40:55;;;;;;;16.55;8.18;;;-0.20;99.90;;;;;;4805546;29;20057;-75
2022/03/06 01:43:21;;;;;;;18.17;8.80;;;-0.20;99.90;;;;;;4789800;29;20059;-76
2022/03/06 01:45:47;;;;;;;15.88;8.68;;;0.90;99.90;;;;;;4805834;29;20046;-73
2022/03/06 01:48:12;;;;;;;16.35;7.93;;;-0.10;99.90;;;;;;4805799;29;20537;-75
2022/03/06 01:50:39;;;;;;;16.13;8.30;;;-0.10;99.90;;;;;;4805286;29;20054;-75
2022/03/06 01:53:08;;;;;;;14.77;7.60;;;-0.10;99.90;;;;;;4805692;29;20058;-75
2022/03/06 01:55:35;;;;;;;16.00;8.55;;;-0.10;99.90;;;;;;4805509;29;20047;-75
2022/03/06 01:58:03;;;;;;;16.27;8.40;;;-0.10;99.90;;;;;;4805801;29;20510;-75
2022/03/06 02:00:39;;;;;;;15.13;7.50;;;0.00;99.90;;;;;;4805722;29;20046;-75
2022/03/06 02:03:06;;;;;;;16.23;8.15;;;0.10;99.90;;;;;;4805559;29;20126;-75
2022/03/06 02:05:31;;;;;;;13.18;6.95;;;0.00;99.90;;;;;;4805321;29;20050;-75
2022/03/06 02:07:57;;;;;;;19.13;8.10;;;0.00;99.90;;;;;;4805470;29;20063;-75
2022/03/06 02:10:23;;;;;;;14.43;7.97;;;0.00;99.90;;;;;;4805638;29;20133;-75
2022/03/06 02:12:49;;;;;;;18.95;8.55;;;0.00;99.90;;;;;;4805682;29;20147;-74
2022/03/06 02:15:17;;;;;;;13.70;6.95;;;0.10;99.90;;;;;;4805540;29;20115;-75
2022/03/06 02:17:43;;;;;;;13.80;7.30;;;0.10;99.90;;;;;;4805624;29;20039;-74
2022/03/06 02:20:12;;;;;;;15.18;7.07;;;0.40;99.90;;;;;;4805050;29;20594;-74
2022/03/06 02:22:40;;;;;;;15.52;7.60;;;0.10;99.90;;;;;;4805667;29;20050;-75
2022/03/06 02:25:09;;;;;;;14.55;7.53;;;0.10;99.90;;;;;;4805271;29;20058;-75
2022/03/06 02:27:35;;;;;;;13.98;7.68;;;0.10;99.90;;;;;;4805530;29;20050;-75
2022/03/06 02:30:06;;;;;;;15.10;7.18;;;0.10;99.90;;;;;;4805343;29;20061;-73
2022/03/06 02:32:33;;;;;;;15.25;7.80;;;0.10;99.90;;;;;;4805591;29;20054;-74
2022/03/06 02:34:58;;;;;;;15.00;8.00;;;0.10;99.90;;;;;;4805434;29;20053;-75
2022/03/06 02:37:24;;;;;;;15.15;6.95;;;0.10;99.90;;;;;;4805316;29;20407;-74
2022/03/06 02:39:50;;;;;;;16.00;7.70;;;0.10;99.90;;;;;;4807203;29;20445;-75
2022/03/06 02:42:31;;;;;;;15.30;8.05;;;0.10;99.90;;;;;;4806936;29;20392;-76
2022/03/06 02:44:58;;;;;;;14.55;8.00;;;0.10;99.90;;;;;;4808576;29;20085;-73
2022/03/06 02:47:25;;;;;;;15.30;8.23;;;0.10;99.90;;;;;;4808721;29;20073;-74
2022/03/06 02:49:51;;;;;;;19.60;8.45;;;0.10;99.90;;;;;;4808696;29;20050;-75
2022/03/06 02:52:18;;;;;;;14.18;6.93;;;0.10;99.90;;;;;;4791888;29;20059;-76
2022/03/06 02:54:44;;;;;;;14.45;8.10;;;0.10;99.90;;;;;;4792289;29;20130;-76
2022/03/06 02:57:11;;;;;;;14.88;7.45;;;0.10;99.90;;;;;;4808499;29;20445;-75
2022/03/06 02:59:37;;;;;;;13.02;7.30;;;0.10;99.90;;;;;;4808334;29;20526;-75
2022/03/06 03:02:04;;;;;;;15.98;7.50;;;0.10;99.90;;;;;;4808452;29;20078;-72
2022/03/06 03:04:31;;;;;;;13.73;7.20;;;0.10;99.90;;;;;;4808485;29;20449;-73
2022/03/06 03:06:57;;;;;;;16.05;7.30;;;0.10;99.90;;;;;;4808249;29;20062;-75
2022/03/06 03:09:22;;;;;;;15.07;7.45;;;0.20;99.90;;;;;;4808159;29;20492;-75
2022/03/06 03:11:50;;;;;;;15.68;7.22;;;0.20;99.90;;;;;;4807992;29;20059;-75
2022/03/06 03:14:17;;;;;;;12.68;6.45;;;0.20;99.90;;;;;;4808056;29;20065;-73
2022/03/06 03:16:43;;;;;;;12.05;6.63;;;0.20;99.90;;;;;;4808112;29;20171;-75
2022/03/06 03:19:09;;;;;;;14.00;6.70;;;0.20;99.90;;;;;;4807996;29;20393;-75
2022/03/06 03:21:35;;;;;;;12.90;6.18;;;0.30;99.90;;;;;;4808030;29;20061;-75
2022/03/06 03:24:00;;;;;;;11.52;5.82;;;0.30;99.90;;;;;;4791505;29;20789;-75
2022/03/06 03:26:26;;;;;;;11.82;5.95;;;0.30;99.90;;;;;;4808114;29;20050;-75
2022/03/06 03:28:52;;;;;;;12.43;5.88;;;0.20;99.90;;;;;;4808128;29;20050;-73
2022/03/06 03:31:19;;;;;;;10.57;5.78;;;0.30;99.90;;;;;;4807972;29;20411;-75
2022/03/06 03:33:45;;;;;;;11.52;5.57;;;0.20;99.90;;;;;;4807821;29;20047;-75
2022/03/06 03:36:10;;;;;;;10.88;5.78;;;0.20;99.90;;;;;;4807698;29;20396;-75
2022/03/06 03:38:38;;;;;;;13.77;6.60;;;0.20;99.90;;;;;;4807561;29;20053;-75
2022/03/06 03:41:04;;;;;;;10.63;5.57;;;0.20;99.90;;;;;;4807308;29;20051;-75
2022/03/06 03:43:29;;;;;;;10.75;5.50;;;1.00;99.90;;;;;;4807800;29;20047;-75
2022/03/06 03:45:57;;;;;;;11.23;5.50;;;0.10;99.90;;;;;;4807848;29;20042;-75
2022/03/06 03:48:28;;;;;;;12.68;5.60;;;0.10;99.90;;;;;;4807878;29;20051;-75
2022/03/06 03:50:54;;;;;;;10.52;5.53;;;0.10;99.90;;;;;;4807580;29;20523;-73
2022/03/06 03:53:20;;;;;;;10.90;5.50;;;0.10;99.90;;;;;;4807199;29;20055;-75
2022/03/06 03:55:46;;;;;;;11.75;5.53;;;0.00;99.90;;;;;;4806845;29;20088;-76
2022/03/06 03:58:12;;;;;;;14.00;5.95;;;0.00;99.90;;;;;;4807485;29;20111;-73
2022/03/06 04:00:38;;;;;;;11.57;5.70;;;-0.10;99.90;;;;;;4807429;29;20059;-73
2022/03/06 04:03:04;;;;;;;10.13;5.28;;;-0.10;99.90;;;;;;4791045;29;20063;-75
2022/03/06 04:05:29;;;;;;;9.75;5.28;;;-0.10;99.90;;;;;;4807305;29;20051;-75
2022/03/06 04:07:55;;;;;;;13.55;5.90;;;-0.10;99.90;;;;;;4791226;29;20054;-75
2022/03/06 04:10:21;;;;;;;11.32;5.72;;;-0.20;99.90;;;;;;4807352;29;20108;-73
2022/03/06 04:12:46;;;;;;;11.63;5.60;;;-0.20;99.90;;;;;;4807014;29;20107;-75
2022/03/06 04:15:12;;;;;;;13.10;5.63;;;-0.30;99.90;;;;;;4807085;29;20069;-75
2022/03/06 04:17:38;;;;;;;14.65;5.55;;;-0.30;99.90;;;;;;4807137;29;20058;-75
2022/03/06 04:20:04;;;;;;;13.45;6.15;;;-0.40;99.90;;;;;;4791000;29;20090;-73
2022/03/06 04:22:30;;;;;;;11.07;5.38;;;-0.50;99.90;;;;;;4806819;29;20435;-75
2022/03/06 04:24:56;;;;;;;14.20;6.28;;;-0.50;99.90;;;;;;4790835;29;20126;-74
2022/03/06 04:27:21;;;;;;;12.05;5.38;;;-0.50;99.90;;;;;;4790600;29;20477;-75
2022/03/06 04:29:47;;;;;;;13.60;5.80;;;-0.50;99.90;;;;;;4790919;29;20578;-74
2022/03/06 04:32:13;;;;;;;13.70;5.93;;;-0.60;99.90;;;;;;4806944;29;20055;-73
2022/03/06 04:34:38;;;;;;;11.90;5.47;;;-0.60;99.90;;;;;;4806807;29;20415;-75
2022/03/06 04:37:05;;;;;;;11.32;4.80;;;-0.60;99.90;;;;;;4806612;29;20090;-74
2022/03/06 04:39:30;;;;;;;11.10;5.13;;;-0.70;99.90;;;;;;4806629;29;20046;-73
2022/03/06 04:41:56;;;;;;;10.25;5.20;;;-0.80;99.90;;;;;;4806610;29;20104;-75
2022/03/06 04:44:23;;;;;;;9.48;4.90;;;-0.80;99.90;;;;;;4806815;29;20135;-73
2022/03/06 04:46:49;;;;;;;11.80;5.50;;;-0.70;99.90;;;;;;4806666;29;20086;-75
2022/03/06 04:49:14;;;;;;;13.05;4.90;;;-0.80;99.90;;;;;;4806634;29;20089;-74
2022/03/06 04:51:40;;;;;;;10.38;4.90;;;-0.80;99.90;;;;;;4790106;29;20046;-73
2022/03/06 04:54:07;;;;;;;13.80;5.60;;;-0.80;99.90;;;;;;4806199;29;20130;-75
2022/03/06 04:56:33;;;;;;;11.10;5.60;;;-0.80;99.90;;;;;;4806566;29;20134;-75
2022/03/06 04:58:59;;;;;;;11.35;5.07;;;-0.80;99.90;;;;;;4806109;29;20053;-73
2022/03/06 05:01:25;;;;;;;10.90;5.43;;;-0.90;99.90;;;;;;4790314;29;20063;-75
2022/03/06 05:03:50;;;;;;;15.52;5.55;;;-0.90;99.90;;;;;;4805969;29;20059;-74
2022/03/06 05:06:16;;;;;;;10.98;5.45;;;-0.90;99.90;;;;;;4805953;29;20559;-74
2022/03/06 05:08:42;;;;;;;11.48;5.63;;;-0.90;99.90;;;;;;4806164;29;20043;-74
2022/03/06 05:11:07;;;;;;;10.30;4.75;;;-0.90;99.90;;;;;;4805975;29;20050;-75
2022/03/06 05:13:33;;;;;;;12.52;5.53;;;-0.90;99.90;;;;;;4805631;29;20065;-75
2022/03/06 05:15:59;;;;;;;12.30;5.25;;;-0.90;99.90;;;;;;4806120;29;20046;-74
2022/03/06 05:18:24;;;;;;;12.07;5.03;;;-0.90;99.90;;;;;;4789607;29;20051;-76
2022/03/06 05:20:50;;;;;;;11.63;5.20;;;-0.90;99.90;;;;;;4806104;29;20130;-74
2022/03/06 05:23:17;;;;;;;11.73;5.10;;;-1.00;99.90;;;;;;4806001;29;20080;-75
2022/03/06 05:25:43;;;;;;;12.95;5.80;;;-1.00;99.90;;;;;;4805806;29;20078;-76
2022/03/06 05:28:10;;;;;;;11.82;5.18;;;-1.00;99.90;;;;;;4806071;29;20051;-71
2022/03/06 05:30:36;;;;;;;14.10;5.47;;;-1.00;99.90;;;;;;4805586;29;20047;-73
2022/03/06 05:33:02;;;;;;;11.38;4.60;;;-1.00;99.90;;;;;;4805706;29;20062;-75
2022/03/06 05:35:27;;;;;;;11.63;4.63;;;-1.00;99.90;;;;;;4805758;29;20062;-74
2022/03/06 05:37:53;;;;;;;12.00;5.47;;;-1.10;99.90;;;;;;4789581;29;20124;-76
2022/03/06 05:40:19;;;;;;;10.85;5.20;;;-1.00;99.90;;;;;;4805832;29;20072;-74
2022/03/06 05:42:45;;;;;;;8.88;4.22;;;-1.10;99.90;;;;;;4805950;29;20046;-75
2022/03/06 05:45:11;;;;;;;9.82;5.05;;;-1.10;99.90;;;;;;4805489;29;20543;-75
2022/03/06 05:47:37;;;;;;;10.27;4.72;;;-1.20;99.90;;;;;;4805599;29;20057;-75
2022/03/06 05:50:04;;;;;;;10.32;4.15;;;-1.20;99.90;;;;;;4789615;29;20081;-71
2022/03/06 05:52:30;;;;;;;11.88;5.18;;;-1.30;99.90;;;;;;4805622;29;20085;-74
2022/03/06 05:54:57;;;;;;;11.40;4.25;;;-1.30;99.90;;;;;;4789348;29;20523;-75
2022/03/06 05:57:24;;;;;;;13.40;5.10;;;-1.40;99.90;;;;;;4805754;29;20055;-75
2022/03/06 05:59:50;;;;;;;10.10;4.30;;;-1.40;99.90;;;;;;4805829;29;20054;-75
2022/03/06 06:02:16;;;;;;;11.48;4.82;;;-1.40;99.90;;;;;;4805113;29;20065;-75
2022/03/06 06:04:42;;;;;;;12.18;4.45;;;-1.40;99.90;;;;;;4805481;29;20046;-74
2022/03/06 06:07:09;;;;;;;12.60;4.55;;;-1.40;99.90;;;;;;4805489;29;20051;-75
2022/03/06 06:09:35;;;;;;;10.77;4.57;;;-1.40;99.90;;;;;;4805285;29;20053;-74
2022/03/06 06:12:00;;;;;;;10.65;4.97;;;-1.40;99.90;;;;;;4805198;29;20413;-75
2022/03/06 06:14:26;;;;;;;12.27;4.63;;;-1.40;99.90;;;;;;4805157;29;20428;-75
2022/03/06 06:16:52;;;;;;;10.65;4.72;;;-1.30;99.90;;;;;;4807645;29;20058;-75
2022/03/06 06:19:17;;;;;;;9.85;4.40;;;-1.40;99.90;;;;;;4809156;29;20039;-75
2022/03/06 06:21:43;;;;;;;11.10;4.60;;;-1.40;99.90;;;;;;4809110;29;20059;-75
2022/03/06 06:24:11;;;;;;;11.73;4.68;;;-1.40;99.90;;;;;;4809047;29;20047;-75
2022/03/06 06:26:37;;;;;;;14.27;4.50;;;-1.40;99.90;;;;;;4808763;29;20046;-75
2022/03/06 06:29:03;;;;;;;11.05;4.85;;;-1.30;99.90;;;;;;4809078;29;20047;-75
2022/03/06 06:31:28;;;;;;;9.80;4.28;;;-1.30;99.90;;;;;;4808787;29;20437;-74
2022/03/06 06:33:55;;;;;;;9.80;4.60;;;-1.30;99.90;;;;;;4808631;29;20099;-75
2022/03/06 06:36:21;;;;;;;9.80;4.85;;;-1.20;99.90;;;;;;4808918;29;20053;-75
2022/03/06 06:38:47;;;;;;;10.57;4.47;;;-1.20;99.90;;;;;;4792309;29;20054;-75
2022/03/06 06:41:13;;;;;;;9.05;4.45;;;-1.20;99.90;;;;;;4808647;29;20055;-75
2022/03/06 06:43:38;;;;;;;10.20;3.92;;;-1.10;99.90;;;;;;4792377;29;20058;-76
2022/03/06 06:46:04;;;;;;;9.95;3.92;;;-1.10;99.90;;;;;;4808812;29;20465;-76
2022/03/06 06:48:30;;;;;;;12.75;4.28;;;-1.10;99.90;;;;;;4808325;29;20062;-75
2022/03/06 06:50:55;;;;;;;9.65;3.65;;;-1.20;99.90;;;;;;4808721;29;20138;-76
2022/03/06 06:53:21;;;;;;;9.52;4.20;;;-1.10;99.90;;;;;;4808567;29;20430;-75
2022/03/06 06:55:47;;;;;;;9.07;4.28;;;-1.10;99.90;;;;;;4808268;29;20138;-76
2022/03/06 06:58:12;;;;;;;9.68;3.72;;;-1.10;99.90;;;;;;4808071;29;20053;-72
2022/03/06 07:00:38;;;;;;;11.27;4.82;;;-1.10;99.90;;;;;;4792612;29;20145;-73
2022/03/06 07:03:04;;;;;;;9.15;3.80;;;-1.10;99.90;;;;;;4808209;29;20496;-75
2022/03/06 07:05:29;;;;;;;9.10;3.90;;;-1.10;99.90;;;;;;4808360;29;20412;-74
2022/03/06 07:07:55;;;;;;;8.23;3.65;;;-1.10;99.90;;;;;;4808453;29;20053;-74
2022/03/06 07:10:21;;;;;;;9.10;3.97;;;-1.10;99.90;;;;;;4808135;29;20265;-75
2022/03/06 07:12:53;;;;;;;8.70;3.83;;;-1.10;99.90;;;;;;4807975;29;20058;-76
2022/03/06 07:15:19;;;;;;;8.73;3.38;;;-1.20;99.90;;;;;;4808137;29;20051;-74
2022/03/06 07:17:45;;;;;;;9.13;3.55;;;-1.20;99.90;;;;;;4808418;29;20403;-75
2022/03/06 07:20:11;;;;;;;8.40;3.53;;;-1.10;99.90;;;;;;4791739;29;20054;-75
2022/03/06 07:22:37;;;;;;;8.45;3.58;;;-1.10;99.90;;;;;;4808222;29;20050;-73
2022/03/06 07:25:04;;;;;;;39.22;20.13;;;-1.10;99.90;;;;;;4807824;29;20061;-75
2022/03/06 07:27:29;;;;;;;17.48;8.73;;;-1.10;99.90;;;;;;4807327;29;20099;-74
2022/03/06 07:29:56;;;;;;;8.18;3.97;;;-1.00;99.90;;;;;;4808181;29;20134;-75
2022/03/06 07:32:22;;;;;;;9.75;3.58;;;-1.00;99.90;;;;;;4808030;29;20054;-76
2022/03/06 07:34:48;;;;;;;7.78;3.65;;;-1.00;99.90;;;;;;4807488;29;20408;-76
2022/03/06 07:37:13;;;;;;;8.45;3.90;;;-1.00;99.90;;;;;;4807736;29;20047;-75
2022/03/06 07:39:39;;;;;;;8.57;3.65;;;-0.90;99.90;;;;;;4807625;29;20047;-75
2022/03/06 07:42:05;;;;;;;8.18;3.45;;;-0.80;99.90;;;;;;4807649;29;20055;-76
2022/03/06 07:44:30;;;;;;;9.60;3.55;;;-0.70;99.90;;;;;;4791633;29;20058;-74
2022/03/06 07:46:56;;;;;;;8.98;3.50;;;-0.70;99.90;;;;;;4807768;29;20522;-74
2022/03/06 07:49:22;;;;;;;7.97;3.60;;;-0.60;99.90;;;;;;4807701;29;20043;-73
2022/03/06 07:51:47;;;;;;;8.10;3.33;;;-0.50;99.90;;;;;;4807229;29;20126;-75
2022/03/06 07:54:14;;;;;;;8.95;3.40;;;-0.50;99.90;;;;;;4807406;29;20559;-75
2022/03/06 07:56:49;;;;;;;8.85;3.60;;;-0.30;99.90;;;;;;4807337;29;20051;-76
2022/03/06 07:59:15;;;;;;;7.13;3.28;;;-0.30;99.90;;;;;;4791116;29;20123;-76
2022/03/06 08:01:40;;;;;;;7.47;3.45;;;-0.10;99.90;;;;;;4807545;29;20042;-76
2022/03/06 08:04:06;;;;;;;8.27;3.30;;;0.00;99.90;;;;;;4807480;29;20059;-75
2022/03/06 08:06:32;;;;;;;7.60;3.30;;;0.10;99.90;;;;;;4807014;29;20500;-75
2022/03/06 08:08:57;;;;;;;7.70;3.30;;;0.20;99.90;;;;;;4791202;29;20055;-76
2022/03/06 08:11:23;;;;;;;8.73;4.00;;;0.30;99.90;;;;;;4790921;29;20059;-75
2022/03/06 08:13:49;;;;;;;7.88;3.40;;;0.40;99.90;;;;;;4806934;29;20063;-76
2022/03/06 08:16:14;;;;;;;6.90;3.50;;;0.50;99.90;;;;;;4807257;29;20469;-74
2022/03/06 08:18:40;;;;;;;7.43;3.00;;;1.60;99.90;;;;;;4807303;29;20089;-76
2022/03/06 08:21:06;;;;;;;9.57;3.50;;;0.60;99.90;;;;;;4807072;29;20127;-75
2022/03/06 08:23:31;;;;;;;6.28;2.90;;;0.70;99.90;;;;;;4790264;29;20062;-75
2022/03/06 08:25:57;;;;;;;8.10;3.25;;;0.70;99.90;;;;;;4790866;29;20055;-76
2022/03/06 08:28:22;;;;;;;7.45;3.28;;;0.80;99.90;;;;;;4790850;29;20419;-75
2022/03/06 08:30:48;;;;;;;8.35;3.20;;;0.90;99.90;;;;;;4806978;29;20051;-75
2022/03/06 08:33:14;;;;;;;6.05;2.63;;;1.00;99.90;;;;;;4807050;29;20046;-76
2022/03/06 08:35:40;;;;;;;7.13;3.25;;;1.10;99.90;;;;;;4806540;29;20073;-75
2022/03/06 08:38:06;;;;;;;9.63;3.20;;;1.20;99.90;;;;;;4806376;29;20051;-75
2022/03/06 08:40:31;;;;;;;6.65;2.97;;;1.20;99.90;;;;;;4805895;29;20114;-75
2022/03/06 08:42:57;;;;;;;8.57;3.50;;;1.30;99.90;;;;;;4790560;29;20163;-73
2022/03/06 08:45:26;;;;;;;7.13;2.92;;;1.40;99.90;;;;;;4806650;29;20053;-74
2022/03/06 08:47:52;;;;;;;8.18;2.88;;;1.50;99.90;;;;;;4806746;29;20455;-73
2022/03/06 08:50:18;;;;;;;8.63;3.00;;;1.50;99.90;;;;;;4790226;29;20104;-74
2022/03/06 08:52:43;;;;;;;7.53;2.72;;;1.60;99.90;;;;;;4806391;29;20079;-71
2022/03/06 08:55:09;;;;;;;7.75;2.95;;;1.70;99.90;;;;;;4806356;29;20054;-71
2022/03/06 08:57:36;;;;;;;7.43;2.63;;;1.80;99.90;;;;;;4806376;29;20046;-75
2022/03/06 09:00:04;;;;;;;8.45;3.13;;;1.80;99.90;;;;;;4806134;29;20523;-74
2022/03/06 09:02:30;;;;;;;5.50;2.50;;;1.90;99.90;;;;;;4806443;29;20059;-75
2022/03/06 09:04:55;;;;;;;8.25;2.97;;;2.00;99.90;;;;;;4806584;29;20050;-74
2022/03/06 09:07:22;;;;;;;7.47;3.00;;;2.00;99.90;;;;;;4806138;29;20131;-75
2022/03/06 09:09:49;;;;;;;6.38;2.65;;;2.10;99.90;;;;;;4805776;29;20046;-75
2022/03/06 09:12:15;;;;;;;6.57;2.53;;;2.10;99.90;;;;;;4805561;29;20518;-72
2022/03/06 09:14:41;;;;;;;6.85;2.92;;;2.20;99.90;;;;;;4805845;29;20059;-73
2022/03/06 09:17:09;;;;;;;5.90;2.90;;;2.30;99.90;;;;;;4805957;29;20050;-72
2022/03/06 09:19:35;;;;;;;6.53;2.70;;;2.40;99.90;;;;;;4775296;29;20526;-73
2022/03/06 09:22:00;;;;;;;8.50;2.85;;;2.60;99.90;;;;;;4789938;29;20065;-71
2022/03/06 09:24:26;;;;;;;7.80;2.85;;;2.80;99.90;;;;;;4789719;29;20063;-74
2022/03/06 09:26:52;;;;;;;6.97;2.60;;;3.00;99.90;;;;;;4805803;29;20062;-72
2022/03/06 09:29:18;;;;;;;5.95;2.58;;;3.20;99.90;;;;;;4805807;29;20051;-73
2022/03/06 09:31:44;;;;;;;7.75;2.90;;;3.90;99.90;;;;;;4805525;29;20082;-74
2022/03/06 09:34:10;;;;;;;6.95;2.63;;;3.30;99.90;;;;;;4805882;29;20062;-75
2022/03/06 09:36:36;;;;;;;7.70;3.22;;;4.80;99.90;;;;;;4805872;29;20043;-75
2022/03/06 09:39:04;;;;;;;7.22;2.97;;;3.40;99.90;;;;;;4805848;29;20043;-81
2022/03/06 09:41:30;;;;;;;8.48;3.10;;;3.40;99.90;;;;;;4805470;29;20058;-71
2022/03/06 09:43:57;;;;;;;7.97;2.95;;;3.40;99.90;;;;;;4805489;29;20076;-73
2022/03/06 09:46:24;;;;;;;6.47;2.78;;;3.30;99.90;;;;;;4805436;29;20496;-71
2022/03/06 09:48:50;;;;;;;8.18;2.75;;;3.30;99.90;;;;;;4805630;29;20514;-72
2022/03/06 09:51:16;;;;;;;5.40;2.35;;;3.40;99.90;;;;;;4805203;29;20053;-71
2022/03/06 09:53:42;;;;;;;6.93;2.63;;;3.40;99.90;;;;;;4805474;29;20053;-71
2022/03/06 09:56:08;;;;;;;8.93;2.90;;;3.40;99.90;;;;;;4805074;29;20104;-72
2022/03/06 09:58:33;;;;;;;5.93;2.60;;;3.40;99.90;;;;;;4805202;29;20049;-72
2022/03/06 10:00:59;;;;;;;6.40;2.95;;;3.50;99.90;;;;;;4789434;29;20066;-72
2022/03/06 10:03:25;;;;;;;6.70;2.83;;;3.50;99.90;;;;;;4805527;29;20050;-72
2022/03/06 10:05:51;;;;;;;8.73;3.00;;;3.50;99.90;;;;;;4805489;29;20057;-70
2022/03/06 10:08:28;;;;;;;5.03;2.38;;;3.40;99.90;;;;;;4805413;29;20442;-72
2022/03/06 10:11:14;;;;;;;5.40;2.53;;;3.50;99.90;;;;;;4789386;29;20050;-71
2022/03/06 10:13:42;;;;;;;8.60;3.33;;;3.50;99.90;;;;;;4788544;29;20530;-71
2022/03/06 10:16:13;;;;;;;10.35;2.60;;;3.60;99.90;;;;;;4805402;29;20102;-72
2022/03/06 10:18:40;;;;;;;8.25;2.88;;;3.60;99.90;;;;;;4805339;29;20055;-70
2022/03/06 10:21:08;;;;;;;6.70;2.88;;;3.90;99.90;;;;;;4805253;29;20103;-71
2022/03/06 10:23:34;;;;;;;7.65;3.03;;;3.60;99.90;;;;;;4788991;29;20059;-72
2022/03/06 10:26:05;;;;;;;7.18;2.85;;;3.70;99.90;;;;;;4805331;29;20055;-72
2022/03/06 10:28:41;;;;;;;6.40;2.73;;;4.30;99.90;;;;;;4788912;29;20512;-72
2022/03/06 10:31:07;;;;;;;7.13;2.70;;;3.70;99.90;;;;;;4788933;29;20142;-71
2022/03/06 10:33:32;;;;;;;7.80;2.88;;;4.20;99.90;;;;;;4805175;29;20122;-73
2022/03/06 10:36:01;;;;;;;9.75;2.92;;;3.90;99.90;;;;;;4805271;29;20047;-73
2022/03/06 10:38:35;;;;;;;9.82;2.92;;;4.00;99.90;;;;;;4773881;29;20074;-73
2022/03/06 10:41:03;;;;;;;7.43;2.88;;;4.20;99.90;;;;;;4788723;29;20058;-73
2022/03/06 10:43:32;;;;;;;7.00;2.72;;;4.00;99.90;;;;;;4788701;29;20519;-73
2022/03/06 10:46:12;;;;;;;5.97;2.53;;;4.00;99.90;;;;;;4788927;29;20645;-73
2022/03/06 10:48:40;;;;;;;8.38;3.20;;;4.10;99.90;;;;;;4805070;29;20423;-72
2022/03/06 10:51:09;;;;;;;6.97;2.70;;;4.10;99.90;;;;;;4805073;29;20059;-73
2022/03/06 10:53:34;;;;;;;8.02;3.00;;;4.20;99.90;;;;;;4805313;29;20191;-73
2022/03/06 10:56:12;;;;;;;6.18;2.90;;;4.20;99.90;;;;;;4804997;29;20556;-73
2022/03/06 10:58:40;;;;;;;9.45;3.40;;;4.20;99.90;;;;;;4788344;29;20085;-74
2022/03/06 11:01:06;;;;;;;7.22;3.22;;;4.30;99.90;;;;;;4788768;29;20062;-73
2022/03/06 11:03:35;;;;;;;8.18;3.03;;;4.20;99.90;;;;;;4806983;29;20088;-72
2022/03/06 11:06:05;;;;;;;6.65;3.05;;;4.20;99.90;;;;;;4792074;29;20057;-72
2022/03/06 11:08:32;;;;;;;8.98;3.28;;;4.30;99.90;;;;;;4808571;29;20326;-72
2022/03/06 11:10:59;;;;;;;6.70;2.75;;;4.30;99.90;;;;;;4792313;29;20054;-73
2022/03/06 11:13:26;;;;;;;7.03;2.63;;;4.40;99.90;;;;;;4776961;29;20063;-72
2022/03/06 11:15:52;;;;;;;6.72;2.92;;;4.40;99.90;;;;;;4807764;29;20537;-73
2022/03/06 11:18:19;;;;;;;8.02;3.20;;;4.40;99.90;;;;;;4776908;29;20597;-73
2022/03/06 11:20:45;;;;;;;7.43;3.20;;;4.60;99.90;;;;;;4807877;29;20496;-73
2022/03/06 11:23:33;;;;;;;8.02;3.20;;;4.50;99.90;;;;;;4808098;29;20183;-73
2022/03/06 11:26:16;;;;;;;10.07;3.10;;;4.50;99.90;;;;;;4776648;29;20080;-73
2022/03/06 11:28:50;;;;;;;7.43;3.40;;;4.50;99.90;;;;;;4807926;29;20066;-73
2022/03/06 11:31:16;;;;;;;8.98;3.15;;;5.00;99.90;;;;;;4807337;29;20142;-73
2022/03/06 11:34:03;;;;;;;8.93;3.03;;;4.60;99.90;;;;;;4791513;29;20132;-73
2022/03/06 11:36:30;;;;;;;7.97;2.97;;;4.70;99.90;;;;;;4776568;29;20175;-72
2022/03/06 11:38:56;;;;;;;7.72;3.00;;;4.80;99.90;;;;;;4791330;29;20046;-72
2022/03/06 11:41:25;;;;;;;7.70;2.78;;;4.80;99.90;;;;;;4791554;29;20058;-73
2022/03/06 11:43:51;;;;;;;7.57;3.10;;;4.90;99.90;;;;;;4807494;29;20043;-73
2022/03/06 11:46:24;;;;;;;7.25;3.22;;;4.90;99.90;;;;;;4807461;29;20051;-73
2022/03/06 11:48:50;;;;;;;7.70;2.90;;;4.80;99.90;;;;;;4807445;29;20580;-73
2022/03/06 11:51:22;;;;;;;8.55;3.30;;;4.90;99.90;;;;;;4807349;29;20055;-73
2022/03/06 11:54:06;;;;;;;8.07;3.25;;;5.00;99.90;;;;;;4791245;29;20047;-73
2022/03/06 11:56:35;;;;;;;7.72;3.25;;;4.90;99.90;;;;;;4807386;29;20097;-73
2022/03/06 11:59:11;;;;;;;8.95;3.28;;;4.90;99.90;;;;;;4807529;29;20560;-72
2022/03/06 12:01:42;;;;;;;9.50;3.75;;;4.80;99.90;;;;;;4790825;29;20050;-73
2022/03/06 12:04:07;;;;;;;7.90;3.05;;;5.00;99.90;;;;;;4807184;29;20495;-73
2022/03/06 12:06:42;;;;;;;9.07;3.42;;;5.00;99.90;;;;;;4791285;29;20047;-73
2022/03/06 12:09:18;;;;;;;8.70;3.15;;;5.20;99.90;;;;;;4807154;29;20055;-74
2022/03/06 12:11:45;;;;;;;8.77;3.05;;;5.30;99.90;;;;;;4807117;29;20492;-73
2022/03/06 12:14:17;;;;;;;7.68;3.72;;;5.30;99.90;;;;;;4790722;29;20058;-73
2022/03/06 12:17:00;;;;;;;7.63;3.10;;;5.30;99.90;;;;;;4807252;29;20062;-74
2022/03/06 12:19:27;;;;;;;8.02;3.50;;;5.60;99.90;;;;;;4790254;29;20054;-73
2022/03/06 12:22:06;;;;;;;7.38;3.30;;;5.50;99.90;;;;;;4790855;29;20152;-73
2022/03/06 12:24:32;;;;;;;8.40;3.05;;;5.40;99.90;;;;;;4790897;29;20088;-73
2022/03/06 12:26:58;;;;;;;6.95;3.17;;;5.40;99.90;;;;;;4807086;29;20050;-73
2022/03/06 12:29:45;;;;;;;8.52;2.92;;;5.50;99.90;;;;;;4790605;29;20522;-72
2022/03/06 12:32:28;;;;;;;7.07;2.95;;;5.50;99.90;;;;;;4806803;29;20103;-73
2022/03/06 12:35:14;;;;;;;8.13;3.70;;;5.50;99.90;;;;;;4789741;29;20097;-72
2022/03/06 12:37:42;;;;;;;9.90;3.95;;;5.40;99.90;;;;;;4806737;29;20103;-73
2022/03/06 12:40:16;;;;;;;8.30;3.30;;;5.30;99.90;;;;;;4790558;29;20055;-73
2022/03/06 12:42:44;;;;;;;9.55;3.40;;;5.30;99.90;;;;;;4775253;29;20059;-73
2022/03/06 12:45:11;;;;;;;7.38;3.35;;;5.40;99.90;;;;;;4790128;29;20054;-73